sensor_id;sensor_type;location;lat;lon;timestamp;pressure;altitude;pressure_sealevel;temperature;humidity
56671;BME280;42545;50.054;8.306;2023-04-10T00:00:32;100665.41;;;3.94;88.07
56671;BME280;42545;50.054;8.306;2023-04-10T00:02:59;100661.63;;;3.87;88.09
56671;BME280;42545;50.054;8.306;2023-04-10T00:05:27;100666.75;;;3.85;88.33
56671;BME280;42545;50.054;8.306;2023-04-10T00:07:54;100669.09;;;3.81;88.78
56671;BME280;42545;50.054;8.306;2023-04-10T00:10:22;100668.97;;;3.78;88.79
56671;BME280;42545;50.054;8.306;2023-04-10T00:12:50;100661.13;;;3.78;89.04
56671;BME280;42545;50.054;8.306;2023-04-10T00:15:18;100657.69;;;3.79;89.06
56671;BME280;42545;50.054;8.306;2023-04-10T00:17:44;100656.03;;;3.81;89.37
56671;BME280;42545;50.054;8.306;2023-04-10T00:20:11;100657.03;;;3.83;89.43
56671;BME280;42545;50.054;8.306;2023-04-10T00:22:38;100657.03;;;3.83;89.42
56671;BME280;42545;50.054;8.306;2023-04-10T00:25:06;100652.72;;;3.83;89.57
56671;BME280;42545;50.054;8.306;2023-04-10T00:27:35;100658.81;;;3.84;89.62
56671;BME280;42545;50.054;8.306;2023-04-10T00:30:02;100661.53;;;3.85;89.69
56671;BME280;42545;50.054;8.306;2023-04-10T00:32:29;100651.09;;;3.85;89.54
56671;BME280;42545;50.054;8.306;2023-04-10T00:34:57;100652.63;;;3.82;89.38
56671;BME280;42545;50.054;8.306;2023-04-10T00:37:23;100652.63;;;3.82;89.32
56671;BME280;42545;50.054;8.306;2023-04-10T00:39:50;100664.44;;;3.75;89.00
56671;BME280;42545;50.054;8.306;2023-04-10T00:42:17;100654.50;;;3.68;89.12
56671;BME280;42545;50.054;8.306;2023-04-10T00:44:47;100654.00;;;3.59;89.41
56671;BME280;42545;50.054;8.306;2023-04-10T00:47:15;100659.13;;;3.57;90.10
56671;BME280;42545;50.054;8.306;2023-04-10T00:49:42;100653.50;;;3.50;90.04
56671;BME280;42545;50.054;8.306;2023-04-10T00:52:10;100658.72;;;3.50;90.59
56671;BME280;42545;50.054;8.306;2023-04-10T00:54:38;100664.50;;;3.44;90.12
56671;BME280;42545;50.054;8.306;2023-04-10T00:57:05;100671.84;;;3.35;90.42
56671;BME280;42545;50.054;8.306;2023-04-10T00:59:33;100669.69;;;3.27;90.83
56671;BME280;42545;50.054;8.306;2023-04-10T01:02:02;100671.06;;;3.21;90.91
56671;BME280;42545;50.054;8.306;2023-04-10T01:04:29;100667.38;;;3.17;91.12
56671;BME280;42545;50.054;8.306;2023-04-10T01:06:58;100669.00;;;3.15;91.63
56671;BME280;42545;50.054;8.306;2023-04-10T01:09:34;100671.63;;;3.15;92.20
56671;BME280;42545;50.054;8.306;2023-04-10T01:12:12;100677.56;;;3.13;91.83
56671;BME280;42545;50.054;8.306;2023-04-10T01:14:49;100673.97;;;3.11;92.18
56671;BME280;42545;50.054;8.306;2023-04-10T01:17:27;100666.72;;;3.05;92.28
56671;BME280;42545;50.054;8.306;2023-04-10T01:20:01;100663.84;;;3.00;92.53
56671;BME280;42545;50.054;8.306;2023-04-10T01:22:33;100664.63;;;2.99;93.02
56671;BME280;42545;50.054;8.306;2023-04-10T01:25:18;100674.34;;;3.02;93.26
56671;BME280;42545;50.054;8.306;2023-04-10T01:28:04;100659.78;;;3.05;93.34
56671;BME280;42545;50.054;8.306;2023-04-10T01:30:36;100658.16;;;3.07;93.69
56671;BME280;42545;50.054;8.306;2023-04-10T01:33:05;100654.75;;;3.08;93.22
56671;BME280;42545;50.054;8.306;2023-04-10T01:35:36;100647.72;;;3.07;92.98
56671;BME280;42545;50.054;8.306;2023-04-10T01:38:05;100646.94;;;3.08;93.14
56671;BME280;42545;50.054;8.306;2023-04-10T01:40:34;100646.09;;;3.10;93.28
56671;BME280;42545;50.054;8.306;2023-04-10T01:43:05;100644.47;;;3.12;93.34
56671;BME280;42545;50.054;8.306;2023-04-10T01:45:35;100642.69;;;3.11;93.05
56671;BME280;42545;50.054;8.306;2023-04-10T01:48:06;100636.31;;;3.05;92.59
56671;BME280;42545;50.054;8.306;2023-04-10T01:50:33;100629.19;;;3.03;92.77
56671;BME280;42545;50.054;8.306;2023-04-10T01:53:02;100627.44;;;3.02;93.29
56671;BME280;42545;50.054;8.306;2023-04-10T01:55:30;100628.06;;;2.98;92.97
56671;BME280;42545;50.054;8.306;2023-04-10T01:57:58;100627.09;;;2.96;93.56
56671;BME280;42545;50.054;8.306;2023-04-10T02:00:25;100620.81;;;2.92;93.15
56671;BME280;42545;50.054;8.306;2023-04-10T02:02:53;100618.03;;;2.89;93.48
56671;BME280;42545;50.054;8.306;2023-04-10T02:05:20;100615.22;;;2.86;93.26
56671;BME280;42545;50.054;8.306;2023-04-10T02:07:53;100608.94;;;2.82;93.39
56671;BME280;42545;50.054;8.306;2023-04-10T02:10:24;100605.19;;;2.77;93.81
56671;BME280;42545;50.054;8.306;2023-04-10T02:12:58;100611.69;;;2.69;93.17
56671;BME280;42545;50.054;8.306;2023-04-10T02:15:27;100609.25;;;2.57;92.98
56671;BME280;42545;50.054;8.306;2023-04-10T02:17:57;100613.94;;;2.48;93.47
56671;BME280;42545;50.054;8.306;2023-04-10T02:20:26;100599.97;;;2.31;93.70
56671;BME280;42545;50.054;8.306;2023-04-10T02:22:52;100611.09;;;2.28;93.99
56671;BME280;42545;50.054;8.306;2023-04-10T02:25:19;100614.16;;;2.21;94.33
56671;BME280;42545;50.054;8.306;2023-04-10T02:27:46;100615.78;;;2.19;95.17
56671;BME280;42545;50.054;8.306;2023-04-10T02:30:13;100614.84;;;2.19;95.64
56671;BME280;42545;50.054;8.306;2023-04-10T02:32:40;100623.59;;;2.19;95.73
56671;BME280;42545;50.054;8.306;2023-04-10T02:35:09;100617.56;;;2.20;96.08
56671;BME280;42545;50.054;8.306;2023-04-10T02:37:36;100619.47;;;2.23;96.57
56671;BME280;42545;50.054;8.306;2023-04-10T02:40:03;100620.59;;;2.28;96.88
56671;BME280;42545;50.054;8.306;2023-04-10T02:42:30;100623.41;;;2.31;96.75
56671;BME280;42545;50.054;8.306;2023-04-10T02:44:57;100618.47;;;2.36;97.20
56671;BME280;42545;50.054;8.306;2023-04-10T02:47:24;100616.03;;;2.39;96.88
56671;BME280;42545;50.054;8.306;2023-04-10T02:49:51;100621.50;;;2.43;97.16
56671;BME280;42545;50.054;8.306;2023-04-10T02:52:19;100617.38;;;2.47;97.02
56671;BME280;42545;50.054;8.306;2023-04-10T02:54:46;100612.41;;;2.52;97.25
56671;BME280;42545;50.054;8.306;2023-04-10T02:57:13;100611.72;;;2.54;96.99
56671;BME280;42545;50.054;8.306;2023-04-10T02:59:40;100606.75;;;2.59;97.10
56671;BME280;42545;50.054;8.306;2023-04-10T03:02:07;100601.91;;;2.65;97.46
56671;BME280;42545;50.054;8.306;2023-04-10T03:04:33;100597.81;;;2.70;97.30
56671;BME280;42545;50.054;8.306;2023-04-10T03:07:00;100595.41;;;2.73;96.77
56671;BME280;42545;50.054;8.306;2023-04-10T03:09:29;100593.78;;;2.75;96.92
56671;BME280;42545;50.054;8.306;2023-04-10T03:11:57;100585.16;;;2.76;96.64
56671;BME280;42545;50.054;8.306;2023-04-10T03:14:24;100585.16;;;2.76;96.31
56671;BME280;42545;50.054;8.306;2023-04-10T03:16:51;100576.97;;;2.70;95.74
56671;BME280;42545;50.054;8.306;2023-04-10T03:19:19;100582.84;;;2.66;95.80
56671;BME280;42545;50.054;8.306;2023-04-10T03:21:46;100583.31;;;2.59;95.74
56671;BME280;42545;50.054;8.306;2023-04-10T03:24:12;100581.97;;;2.50;95.92
56671;BME280;42545;50.054;8.306;2023-04-10T03:26:40;100577.22;;;2.43;96.11
56671;BME280;42545;50.054;8.306;2023-04-10T03:29:07;100574.34;;;2.39;96.38
56671;BME280;42545;50.054;8.306;2023-04-10T03:31:34;100575.78;;;2.34;97.14
56671;BME280;42545;50.054;8.306;2023-04-10T03:34:01;100571.22;;;2.29;96.89
56671;BME280;42545;50.054;8.306;2023-04-10T03:36:27;100557.75;;;2.22;97.46
56671;BME280;42545;50.054;8.306;2023-04-10T03:38:54;100572.94;;;2.29;98.23
56671;BME280;42545;50.054;8.306;2023-04-10T03:41:21;100568.63;;;2.29;98.20
56671;BME280;42545;50.054;8.306;2023-04-10T03:43:50;100560.91;;;2.31;98.51
56671;BME280;42545;50.054;8.306;2023-04-10T03:46:17;100553.28;;;2.34;98.30
56671;BME280;42545;50.054;8.306;2023-04-10T03:48:44;100549.94;;;2.37;98.87
56671;BME280;42545;50.054;8.306;2023-04-10T03:51:10;100555.31;;;2.40;99.09
56671;BME280;42545;50.054;8.306;2023-04-10T03:53:36;100548.41;;;2.40;98.91
56671;BME280;42545;50.054;8.306;2023-04-10T03:56:04;100556.31;;;2.42;98.70
56671;BME280;42545;50.054;8.306;2023-04-10T03:58:30;100550.31;;;2.43;98.77
56671;BME280;42545;50.054;8.306;2023-04-10T04:00:58;100564.22;;;2.43;98.67
56671;BME280;42545;50.054;8.306;2023-04-10T04:03:25;100570.13;;;2.41;98.02
56671;BME280;42545;50.054;8.306;2023-04-10T04:05:52;100568.16;;;2.37;97.92
56671;BME280;42545;50.054;8.306;2023-04-10T04:08:18;100573.91;;;2.31;97.65
56671;BME280;42545;50.054;8.306;2023-04-10T04:10:45;100573.47;;;2.23;97.71
56671;BME280;42545;50.054;8.306;2023-04-10T04:13:11;100574.13;;;2.19;98.35
56671;BME280;42545;50.054;8.306;2023-04-10T04:15:38;100570.44;;;2.16;98.17
56671;BME280;42545;50.054;8.306;2023-04-10T04:18:07;100567.66;;;2.13;98.66
56671;BME280;42545;50.054;8.306;2023-04-10T04:20:35;100564.75;;;2.08;98.40
56671;BME280;42545;50.054;8.306;2023-04-10T04:23:01;100570.78;;;2.07;99.07
56671;BME280;42545;50.054;8.306;2023-04-10T04:25:28;100582.72;;;2.03;98.83
56671;BME280;42545;50.054;8.306;2023-04-10T04:27:55;100587.59;;;1.97;98.49
56671;BME280;42545;50.054;8.306;2023-04-10T04:30:22;100589.81;;;1.91;98.61
56671;BME280;42545;50.054;8.306;2023-04-10T04:32:48;100576.16;;;1.80;98.91
56671;BME280;42545;50.054;8.306;2023-04-10T04:35:16;100584.94;;;1.82;99.48
56671;BME280;42545;50.054;8.306;2023-04-10T04:37:43;100597.06;;;1.82;99.69
56671;BME280;42545;50.054;8.306;2023-04-10T04:40:10;100595.44;;;1.84;100.00
56671;BME280;42545;50.054;8.306;2023-04-10T04:42:37;100585.03;;;1.84;100.00
56671;BME280;42545;50.054;8.306;2023-04-10T04:45:05;100587.72;;;1.85;100.00
56671;BME280;42545;50.054;8.306;2023-04-10T04:47:32;100582.63;;;1.87;100.00
56671;BME280;42545;50.054;8.306;2023-04-10T04:49:59;100588.81;;;1.89;100.00
56671;BME280;42545;50.054;8.306;2023-04-10T04:52:27;100586.41;;;1.92;100.00
56671;BME280;42545;50.054;8.306;2023-04-10T04:54:54;100580.56;;;1.96;100.00
56671;BME280;42545;50.054;8.306;2023-04-10T04:57:21;100576.44;;;2.00;100.00
56671;BME280;42545;50.054;8.306;2023-04-10T04:59:50;100592.59;;;2.09;100.00
56671;BME280;42545;50.054;8.306;2023-04-10T05:02:17;100590.28;;;2.14;100.00
56671;BME280;42545;50.054;8.306;2023-04-10T05:04:46;100585.31;;;2.18;100.00
56671;BME280;42545;50.054;8.306;2023-04-10T05:07:13;100564.31;;;2.15;100.00
56671;BME280;42545;50.054;8.306;2023-04-10T05:09:41;100579.66;;;2.25;100.00
56671;BME280;42545;50.054;8.306;2023-04-10T05:12:07;100575.63;;;2.30;100.00
56671;BME280;42545;50.054;8.306;2023-04-10T05:14:34;100570.66;;;2.35;100.00
56671;BME280;42545;50.054;8.306;2023-04-10T05:17:01;100578.84;;;2.41;100.00
56671;BME280;42545;50.054;8.306;2023-04-10T05:19:28;100571.28;;;2.46;100.00
56671;BME280;42545;50.054;8.306;2023-04-10T05:21:54;100578.72;;;2.55;100.00
56671;BME280;42545;50.054;8.306;2023-04-10T05:24:21;100572.19;;;2.61;100.00
56671;BME280;42545;50.054;8.306;2023-04-10T05:26:49;100582.13;;;2.68;100.00
56671;BME280;42545;50.054;8.306;2023-04-10T05:29:15;100583.25;;;2.74;100.00
56671;BME280;42545;50.054;8.306;2023-04-10T05:31:42;100573.03;;;2.77;100.00
56671;BME280;42545;50.054;8.306;2023-04-10T05:34:08;100573.63;;;2.87;100.00
56671;BME280;42545;50.054;8.306;2023-04-10T05:36:35;100567.06;;;2.94;100.00
56671;BME280;42545;50.054;8.306;2023-04-10T05:39:02;100570.97;;;3.02;100.00
56671;BME280;42545;50.054;8.306;2023-04-10T05:41:28;100569.69;;;3.11;100.00
56671;BME280;42545;50.054;8.306;2023-04-10T05:43:57;100578.97;;;3.22;100.00
56671;BME280;42545;50.054;8.306;2023-04-10T05:46:24;100577.66;;;3.30;100.00
56671;BME280;42545;50.054;8.306;2023-04-10T05:48:51;100574.66;;;3.39;100.00
56671;BME280;42545;50.054;8.306;2023-04-10T05:51:18;100579.56;;;3.49;100.00
56671;BME280;42545;50.054;8.306;2023-04-10T05:53:44;100574.84;;;3.58;100.00
56671;BME280;42545;50.054;8.306;2023-04-10T05:56:11;100571.16;;;3.71;100.00
56671;BME280;42545;50.054;8.306;2023-04-10T05:58:37;100571.03;;;3.86;100.00
56671;BME280;42545;50.054;8.306;2023-04-10T06:01:06;100576.16;;;4.01;100.00
56671;BME280;42545;50.054;8.306;2023-04-10T06:03:33;100566.50;;;4.16;100.00
56671;BME280;42545;50.054;8.306;2023-04-10T06:06:00;100568.28;;;4.35;100.00
56671;BME280;42545;50.054;8.306;2023-04-10T06:08:27;100570.91;;;4.53;100.00
56671;BME280;42545;50.054;8.306;2023-04-10T06:10:54;100565.81;;;4.74;99.45
56671;BME280;42545;50.054;8.306;2023-04-10T06:13:20;100557.28;;;4.96;98.16
56671;BME280;42545;50.054;8.306;2023-04-10T06:15:47;100553.13;;;5.19;97.33
56671;BME280;42545;50.054;8.306;2023-04-10T06:18:15;100553.69;;;5.32;96.07
56671;BME280;42545;50.054;8.306;2023-04-10T06:20:42;100547.22;;;5.43;94.78
56671;BME280;42545;50.054;8.306;2023-04-10T06:23:09;100547.94;;;5.60;93.89
56671;BME280;42545;50.054;8.306;2023-04-10T06:25:36;100544.91;;;5.70;93.42
56671;BME280;42545;50.054;8.306;2023-04-10T06:28:03;100553.25;;;5.81;92.73
56671;BME280;42545;50.054;8.306;2023-04-10T06:30:29;100561.50;;;5.90;91.75
56671;BME280;42545;50.054;8.306;2023-04-10T06:32:58;100556.69;;;6.00;91.08
56671;BME280;42545;50.054;8.306;2023-04-10T06:35:26;100556.31;;;6.11;90.44
56671;BME280;42545;50.054;8.306;2023-04-10T06:37:52;100561.25;;;6.25;89.66
56671;BME280;42545;50.054;8.306;2023-04-10T06:40:19;100547.56;;;6.32;89.40
56671;BME280;42545;50.054;8.306;2023-04-10T06:42:45;100554.22;;;6.45;88.31
56671;BME280;42545;50.054;8.306;2023-04-10T06:45:14;100556.63;;;6.61;87.52
56671;BME280;42545;50.054;8.306;2023-04-10T06:47:41;100552.63;;;6.71;87.17
56671;BME280;42545;50.054;8.306;2023-04-10T06:50:08;100568.72;;;6.80;85.69
56671;BME280;42545;50.054;8.306;2023-04-10T06:52:38;100558.72;;;6.92;85.21
56671;BME280;42545;50.054;8.306;2023-04-10T06:55:05;100557.28;;;7.01;85.01
56671;BME280;42545;50.054;8.306;2023-04-10T06:57:32;100551.50;;;7.09;84.45
56671;BME280;42545;50.054;8.306;2023-04-10T06:59:58;100551.97;;;7.22;84.03
56671;BME280;42545;50.054;8.306;2023-04-10T07:02:25;100556.75;;;7.32;82.77
56671;BME280;42545;50.054;8.306;2023-04-10T07:04:52;100561.53;;;7.44;82.34
56671;BME280;42545;50.054;8.306;2023-04-10T07:07:18;100553.28;;;7.57;81.78
56671;BME280;42545;50.054;8.306;2023-04-10T07:09:47;100543.16;;;7.68;80.66
56671;BME280;42545;50.054;8.306;2023-04-10T07:12:13;100545.34;;;7.80;80.31
56671;BME280;42545;50.054;8.306;2023-04-10T07:14:41;100535.22;;;7.91;79.58
56671;BME280;42545;50.054;8.306;2023-04-10T07:17:08;100538.22;;;8.01;78.02
56671;BME280;42545;50.054;8.306;2023-04-10T07:19:40;100533.34;;;8.14;77.66
56671;BME280;42545;50.054;8.306;2023-04-10T07:22:13;100535.47;;;8.24;76.90
56671;BME280;42545;50.054;8.306;2023-04-10T07:24:41;100536.66;;;8.34;76.34
56671;BME280;42545;50.054;8.306;2023-04-10T07:27:09;100542.34;;;8.46;75.56
56671;BME280;42545;50.054;8.306;2023-04-10T07:29:36;100546.28;;;8.59;75.43
56671;BME280;42545;50.054;8.306;2023-04-10T07:32:03;100540.75;;;8.78;75.25
56671;BME280;42545;50.054;8.306;2023-04-10T07:34:30;100542.16;;;8.96;73.03
56671;BME280;42545;50.054;8.306;2023-04-10T07:36:56;100540.84;;;9.10;73.07
56671;BME280;42545;50.054;8.306;2023-04-10T07:39:23;100544.06;;;9.30;72.16
56671;BME280;42545;50.054;8.306;2023-04-10T07:41:52;100541.91;;;9.46;71.44
56671;BME280;42545;50.054;8.306;2023-04-10T07:44:20;100545.69;;;9.55;70.57
56671;BME280;42545;50.054;8.306;2023-04-10T07:46:46;100541.28;;;9.56;69.69
56671;BME280;42545;50.054;8.306;2023-04-10T07:49:13;100546.88;;;9.67;69.43
56671;BME280;42545;50.054;8.306;2023-04-10T07:51:40;100549.84;;;9.79;69.73
56671;BME280;42545;50.054;8.306;2023-04-10T07:54:07;100542.09;;;9.85;68.58
56671;BME280;42545;50.054;8.306;2023-04-10T07:56:34;100546.63;;;9.91;68.21
56671;BME280;42545;50.054;8.306;2023-04-10T07:59:03;100542.47;;;9.99;67.63
56671;BME280;42545;50.054;8.306;2023-04-10T08:01:31;100536.47;;;10.05;67.56
56671;BME280;42545;50.054;8.306;2023-04-10T08:03:58;100543.00;;;10.19;67.60
56671;BME280;42545;50.054;8.306;2023-04-10T08:06:27;100530.81;;;10.24;67.28
56671;BME280;42545;50.054;8.306;2023-04-10T08:08:54;100530.16;;;10.31;67.02
56671;BME280;42545;50.054;8.306;2023-04-10T08:11:22;100537.59;;;10.48;66.65
56671;BME280;42545;50.054;8.306;2023-04-10T08:13:50;100525.56;;;10.59;66.66
56671;BME280;42545;50.054;8.306;2023-04-10T08:16:19;100511.59;;;10.65;65.53
56671;BME280;42545;50.054;8.306;2023-04-10T08:18:52;100524.09;;;10.72;64.95
56671;BME280;42545;50.054;8.306;2023-04-10T08:21:20;100524.25;;;10.80;64.74
56671;BME280;42545;50.054;8.306;2023-04-10T08:23:49;100519.06;;;10.83;64.82
56671;BME280;42545;50.054;8.306;2023-04-10T08:26:16;100516.69;;;10.95;64.96
56671;BME280;42545;50.054;8.306;2023-04-10T08:28:45;100517.00;;;11.09;65.05
56671;BME280;42545;50.054;8.306;2023-04-10T08:31:14;100519.06;;;11.24;64.28
56671;BME280;42545;50.054;8.306;2023-04-10T08:33:41;100518.53;;;11.40;63.80
56671;BME280;42545;50.054;8.306;2023-04-10T08:36:10;100511.56;;;11.44;61.99
56671;BME280;42545;50.054;8.306;2023-04-10T08:38:37;100509.19;;;11.58;63.14
56671;BME280;42545;50.054;8.306;2023-04-10T08:41:04;100513.91;;;11.74;63.25
56671;BME280;42545;50.054;8.306;2023-04-10T08:43:31;100515.03;;;11.87;62.04
56671;BME280;42545;50.054;8.306;2023-04-10T08:46:00;100502.03;;;11.98;61.61
56671;BME280;42545;50.054;8.306;2023-04-10T08:48:30;100498.66;;;12.05;60.37
56671;BME280;42545;50.054;8.306;2023-04-10T08:51:00;100487.31;;;12.14;60.28
56671;BME280;42545;50.054;8.306;2023-04-10T08:53:30;100474.22;;;12.23;59.84
56671;BME280;42545;50.054;8.306;2023-04-10T08:55:58;100480.59;;;12.36;59.72
56671;BME280;42545;50.054;8.306;2023-04-10T08:58:27;100471.84;;;12.38;58.80
56671;BME280;42545;50.054;8.306;2023-04-10T09:00:53;100471.88;;;12.40;58.90
56671;BME280;42545;50.054;8.306;2023-04-10T09:03:21;100466.72;;;12.49;59.21
56671;BME280;42545;50.054;8.306;2023-04-10T09:05:48;100458.94;;;12.60;58.02
56671;BME280;42545;50.054;8.306;2023-04-10T09:08:18;100455.50;;;12.68;58.64
56671;BME280;42545;50.054;8.306;2023-04-10T09:10:46;100441.56;;;12.80;57.58
56671;BME280;42545;50.054;8.306;2023-04-10T09:13:13;100453.34;;;13.04;57.89
56671;BME280;42545;50.054;8.306;2023-04-10T09:15:55;100450.94;;;13.24;57.40
56671;BME280;42545;50.054;8.306;2023-04-10T09:18:39;100452.03;;;13.41;56.10
56671;BME280;42545;50.054;8.306;2023-04-10T09:21:07;100453.84;;;13.42;55.74
56671;BME280;42545;50.054;8.306;2023-04-10T09:23:34;100450.34;;;13.46;55.20
56671;BME280;42545;50.054;8.306;2023-04-10T09:26:21;100446.84;;;13.48;54.24
56671;BME280;42545;50.054;8.306;2023-04-10T09:28:57;100446.88;;;13.54;53.88
56671;BME280;42545;50.054;8.306;2023-04-10T09:31:29;100433.69;;;13.58;53.22
56671;BME280;42545;50.054;8.306;2023-04-10T09:34:08;100425.97;;;13.80;52.56
56671;BME280;42545;50.054;8.306;2023-04-10T09:36:34;100416.31;;;13.94;52.38
56671;BME280;42545;50.054;8.306;2023-04-10T09:39:02;100420.00;;;14.10;52.77
56671;BME280;42545;50.054;8.306;2023-04-10T09:41:34;100403.13;;;13.99;50.35
56671;BME280;42545;50.054;8.306;2023-04-10T09:44:16;100411.03;;;13.96;51.31
56671;BME280;42545;50.054;8.306;2023-04-10T09:46:43;100411.88;;;13.90;51.55
56671;BME280;42545;50.054;8.306;2023-04-10T09:49:09;100405.66;;;13.87;51.36
56671;BME280;42545;50.054;8.306;2023-04-10T09:51:36;100398.59;;;13.89;51.18
56671;BME280;42545;50.054;8.306;2023-04-10T09:54:03;100403.06;;;13.93;51.31
56671;BME280;42545;50.054;8.306;2023-04-10T09:56:37;100389.81;;;13.93;52.23
56671;BME280;42545;50.054;8.306;2023-04-10T09:59:06;100388.03;;;13.92;51.95
56671;BME280;42545;50.054;8.306;2023-04-10T10:01:36;100383.63;;;13.94;51.40
56671;BME280;42545;50.054;8.306;2023-04-10T10:04:05;100378.28;;;13.92;50.91
56671;BME280;42545;50.054;8.306;2023-04-10T10:06:33;100384.56;;;14.03;51.47
56671;BME280;42545;50.054;8.306;2023-04-10T10:09:02;100373.13;;;14.08;50.97
56671;BME280;42545;50.054;8.306;2023-04-10T10:11:31;100374.91;;;14.16;49.60
56671;BME280;42545;50.054;8.306;2023-04-10T10:14:02;100368.88;;;14.36;49.95
56671;BME280;42545;50.054;8.306;2023-04-10T10:16:33;100364.63;;;14.64;49.91
56671;BME280;42545;50.054;8.306;2023-04-10T10:19:08;100354.09;;;14.87;49.71
56671;BME280;42545;50.054;8.306;2023-04-10T10:21:37;100347.97;;;15.07;49.13
56671;BME280;42545;50.054;8.306;2023-04-10T10:24:07;100336.47;;;15.17;48.52
56671;BME280;42545;50.054;8.306;2023-04-10T10:26:34;100341.81;;;15.34;47.14
56671;BME280;42545;50.054;8.306;2023-04-10T10:29:05;100344.50;;;15.45;46.62
56671;BME280;42545;50.054;8.306;2023-04-10T10:31:35;100339.16;;;15.40;45.79
56671;BME280;42545;50.054;8.306;2023-04-10T10:34:03;100336.50;;;15.43;46.73
56671;BME280;42545;50.054;8.306;2023-04-10T10:36:32;100331.19;;;15.51;46.53
56671;BME280;42545;50.054;8.306;2023-04-10T10:39:09;100323.22;;;15.54;46.87
56671;BME280;42545;50.054;8.306;2023-04-10T10:41:42;100317.91;;;15.72;46.89
56671;BME280;42545;50.054;8.306;2023-04-10T10:44:15;100317.03;;;15.90;47.39
56671;BME280;42545;50.054;8.306;2023-04-10T10:46:48;100318.78;;;16.08;47.17
56671;BME280;42545;50.054;8.306;2023-04-10T10:49:15;100318.72;;;16.30;46.33
56671;BME280;42545;50.054;8.306;2023-04-10T10:51:44;100308.06;;;16.36;45.07
56671;BME280;42545;50.054;8.306;2023-04-10T10:54:26;100306.22;;;16.49;45.89
56671;BME280;42545;50.054;8.306;2023-04-10T10:56:56;100299.06;;;16.60;44.40
56671;BME280;42545;50.054;8.306;2023-04-10T10:59:55;100291.03;;;16.66;43.46
56671;BME280;42545;50.054;8.306;2023-04-10T11:02:22;100292.81;;;16.72;43.38
56671;BME280;42545;50.054;8.306;2023-04-10T11:04:49;100275.09;;;16.65;43.10
56671;BME280;42545;50.054;8.306;2023-04-10T11:07:16;100264.41;;;16.68;43.17
56671;BME280;42545;50.054;8.306;2023-04-10T11:09:46;100267.94;;;16.70;42.17
56671;BME280;42545;50.054;8.306;2023-04-10T11:12:14;100260.03;;;16.59;42.05
56671;BME280;42545;50.054;8.306;2023-04-10T11:14:41;100252.03;;;16.59;42.11
56671;BME280;42545;50.054;8.306;2023-04-10T11:17:11;100266.19;;;16.64;42.70
56671;BME280;42545;50.054;8.306;2023-04-10T11:19:57;100248.44;;;16.65;42.29
56671;BME280;42545;50.054;8.306;2023-04-10T11:22:25;100251.94;;;16.75;42.10
56671;BME280;42545;50.054;8.306;2023-04-10T11:24:55;100263.47;;;16.78;41.66
56671;BME280;42545;50.054;8.306;2023-04-10T11:27:37;100259.00;;;16.80;41.61
56671;BME280;42545;50.054;8.306;2023-04-10T11:30:24;100250.16;;;16.78;41.98
56671;BME280;42545;50.054;8.306;2023-04-10T11:32:53;100253.69;;;16.82;42.71
56671;BME280;42545;50.054;8.306;2023-04-10T11:35:21;100258.09;;;16.89;42.83
56671;BME280;42545;50.054;8.306;2023-04-10T11:37:48;100233.25;;;16.81;42.19
56671;BME280;42545;50.054;8.306;2023-04-10T11:40:15;100242.97;;;16.93;42.51
56671;BME280;42545;50.054;8.306;2023-04-10T11:42:42;100232.31;;;16.94;41.31
56671;BME280;42545;50.054;8.306;2023-04-10T11:45:23;100214.59;;;16.84;40.98
56671;BME280;42545;50.054;8.306;2023-04-10T11:47:52;100209.31;;;16.76;40.92
56671;BME280;42545;50.054;8.306;2023-04-10T11:50:20;100213.72;;;16.83;41.23
56671;BME280;42545;50.054;8.306;2023-04-10T11:52:48;100213.63;;;16.97;41.47
56671;BME280;42545;50.054;8.306;2023-04-10T11:55:15;100225.06;;;17.10;41.23
56671;BME280;42545;50.054;8.306;2023-04-10T11:57:43;100215.16;;;17.29;40.84
56671;BME280;42545;50.054;8.306;2023-04-10T12:00:11;100207.97;;;17.36;40.49
56671;BME280;42545;50.054;8.306;2023-04-10T12:02:49;100209.72;;;17.40;39.82
56671;BME280;42545;50.054;8.306;2023-04-10T12:05:18;100202.59;;;17.40;39.73
56671;BME280;42545;50.054;8.306;2023-04-10T12:07:47;100199.84;;;17.48;39.87
56671;BME280;42545;50.054;8.306;2023-04-10T12:10:14;100200.69;;;17.58;39.80
56671;BME280;42545;50.054;8.306;2023-04-10T12:12:41;100195.28;;;17.59;38.74
56671;BME280;42545;50.054;8.306;2023-04-10T12:15:24;100197.16;;;17.53;38.87
56671;BME280;42545;50.054;8.306;2023-04-10T12:17:51;100187.44;;;17.47;39.57
56671;BME280;42545;50.054;8.306;2023-04-10T12:20:19;100193.72;;;17.40;39.67
56671;BME280;42545;50.054;8.306;2023-04-10T12:22:48;100183.06;;;17.40;39.49
56671;BME280;42545;50.054;8.306;2023-04-10T12:25:20;100189.16;;;17.51;39.46
56671;BME280;42545;50.054;8.306;2023-04-10T12:27:47;100180.09;;;17.71;40.30
56671;BME280;42545;50.054;8.306;2023-04-10T12:30:15;100162.28;;;17.73;39.33
56671;BME280;42545;50.054;8.306;2023-04-10T12:32:50;100164.09;;;17.69;39.58
56671;BME280;42545;50.054;8.306;2023-04-10T12:35:19;100164.97;;;17.66;39.08
56671;BME280;42545;50.054;8.306;2023-04-10T12:37:46;100165.94;;;17.61;38.37
56671;BME280;42545;50.054;8.306;2023-04-10T12:40:13;100174.03;;;17.53;38.78
56671;BME280;42545;50.054;8.306;2023-04-10T12:42:41;100166.97;;;17.47;38.54
56671;BME280;42545;50.054;8.306;2023-04-10T12:45:09;100168.81;;;17.41;37.90
56671;BME280;42545;50.054;8.306;2023-04-10T12:47:42;100163.53;;;17.36;38.51
56671;BME280;42545;50.054;8.306;2023-04-10T12:50:11;100154.69;;;17.29;38.50
56671;BME280;42545;50.054;8.306;2023-04-10T12:52:41;100151.16;;;17.29;39.13
56671;BME280;42545;50.054;8.306;2023-04-10T12:55:11;100158.22;;;17.35;37.81
56671;BME280;42545;50.054;8.306;2023-04-10T12:57:39;100154.53;;;17.45;38.22
56671;BME280;42545;50.054;8.306;2023-04-10T13:00:07;100134.00;;;17.56;38.76
56671;BME280;42545;50.054;8.306;2023-04-10T13:02:35;100145.44;;;17.63;38.08